sensor_id;sensor_type;location;lat;lon;timestamp;P1;durP1;ratioP1;P2;durP2;ratioP2
69981;SDS011;57319;56.274;43.980;2023-12-20T05:29:58;16.13;;;7.18;;
69981;SDS011;57319;56.274;43.980;2023-12-20T05:32:24;30.15;;;9.20;;
69981;SDS011;57319;56.274;43.980;2023-12-20T05:34:50;21.52;;;8.45;;
69981;SDS011;57319;56.274;43.980;2023-12-20T05:37:16;31.98;;;8.60;;
69981;SDS011;57319;56.274;43.980;2023-12-20T05:39:41;25.27;;;9.25;;
69981;SDS011;57319;56.274;43.980;2023-12-20T05:42:07;23.00;;;8.73;;
69981;SDS011;57319;56.274;43.980;2023-12-20T05:44:32;17.85;;;7.88;;
69981;SDS011;57319;56.274;43.980;2023-12-20T05:46:58;18.60;;;8.05;;
69981;SDS011;57319;56.274;43.980;2023-12-20T05:49:24;16.27;;;8.82;;
69981;SDS011;57319;56.274;43.980;2023-12-20T05:51:49;19.08;;;9.80;;
69981;SDS011;57319;56.274;43.980;2023-12-20T05:54:16;20.38;;;8.60;;
69981;SDS011;57319;56.274;43.980;2023-12-20T05:56:42;16.10;;;8.75;;
69981;SDS011;57319;56.274;43.980;2023-12-20T05:59:08;23.20;;;7.88;;
69981;SDS011;57319;56.274;43.980;2023-12-20T06:01:33;9.80;;;8.32;;
69981;SDS011;57319;56.274;43.980;2023-12-20T06:03:59;15.25;;;7.28;;
69981;SDS011;57319;56.274;43.980;2023-12-20T06:06:25;22.92;;;8.70;;
69981;SDS011;57319;56.274;43.980;2023-12-20T06:08:50;8.68;;;6.97;;
69981;SDS011;57319;56.274;43.980;2023-12-20T06:11:16;15.20;;;5.47;;
69981;SDS011;57319;56.274;43.980;2023-12-20T06:13:42;8.57;;;5.78;;
69981;SDS011;57319;56.274;43.980;2023-12-20T06:16:07;13.00;;;5.95;;
69981;SDS011;57319;56.274;43.980;2023-12-20T06:18:33;6.45;;;5.43;;
69981;SDS011;57319;56.274;43.980;2023-12-20T06:20:58;6.47;;;5.25;;
69981;SDS011;57319;56.274;43.980;2023-12-20T06:23:24;5.85;;;5.18;;
69981;SDS011;57319;56.274;43.980;2023-12-20T06:25:50;3.28;;;3.05;;
69981;SDS011;57319;56.274;43.980;2023-12-20T06:28:15;4.93;;;2.97;;
69981;SDS011;57319;56.274;43.980;2023-12-20T06:30:41;18.60;;;4.95;;
69981;SDS011;57319;56.274;43.980;2023-12-20T06:33:07;12.68;;;4.40;;
69981;SDS011;57319;56.274;43.980;2023-12-20T06:35:32;9.18;;;4.60;;
69981;SDS011;57319;56.274;43.980;2023-12-20T06:37:58;6.25;;;5.75;;
69981;SDS011;57319;56.274;43.980;2023-12-20T06:40:24;5.93;;;3.25;;
69981;SDS011;57319;56.274;43.980;2023-12-20T06:42:49;3.63;;;3.35;;
69981;SDS011;57319;56.274;43.980;2023-12-20T06:45:15;4.95;;;4.20;;
69981;SDS011;57319;56.274;43.980;2023-12-20T06:47:40;3.92;;;3.70;;
69981;SDS011;57319;56.274;43.980;2023-12-20T06:50:06;4.97;;;3.50;;
69981;SDS011;57319;56.274;43.980;2023-12-20T06:52:34;7.00;;;4.07;;
69981;SDS011;57319;56.274;43.980;2023-12-20T06:55:00;4.18;;;3.67;;
69981;SDS011;57319;56.274;43.980;2023-12-20T06:57:26;7.28;;;4.47;;
69981;SDS011;57319;56.274;43.980;2023-12-20T06:59:53;4.22;;;3.90;;
69981;SDS011;57319;56.274;43.980;2023-12-20T07:02:19;3.83;;;3.63;;
69981;SDS011;57319;56.274;43.980;2023-12-20T07:04:45;2.17;;;2.05;;
69981;SDS011;57319;56.274;43.980;2023-12-20T07:07:11;5.97;;;3.95;;
69981;SDS011;57319;56.274;43.980;2023-12-20T07:09:36;2.92;;;2.28;;
69981;SDS011;57319;56.274;43.980;2023-12-20T07:12:03;6.90;;;3.38;;
69981;SDS011;57319;56.274;43.980;2023-12-20T07:14:29;6.30;;;4.07;;
69981;SDS011;57319;56.274;43.980;2023-12-20T07:16:55;6.35;;;4.30;;
69981;SDS011;57319;56.274;43.980;2023-12-20T07:19:21;5.57;;;4.13;;
69981;SDS011;57319;56.274;43.980;2023-12-20T07:21:46;4.30;;;3.45;;
69981;SDS011;57319;56.274;43.980;2023-12-20T07:24:12;10.15;;;4.05;;
69981;SDS011;57319;56.274;43.980;2023-12-20T07:26:38;6.13;;;4.13;;
69981;SDS011;57319;56.274;43.980;2023-12-20T07:29:04;7.15;;;4.80;;
69981;SDS011;57319;56.274;43.980;2023-12-20T07:31:30;10.43;;;4.25;;
69981;SDS011;57319;56.274;43.980;2023-12-20T07:33:56;6.05;;;5.55;;
69981;SDS011;57319;56.274;43.980;2023-12-20T07:36:21;15.35;;;5.32;;
69981;SDS011;57319;56.274;43.980;2023-12-20T07:38:47;10.02;;;6.30;;
69981;SDS011;57319;56.274;43.980;2023-12-20T07:41:12;22.50;;;7.88;;
69981;SDS011;57319;56.274;43.980;2023-12-20T07:43:38;8.93;;;4.85;;
69981;SDS011;57319;56.274;43.980;2023-12-20T07:46:07;7.25;;;5.20;;
69981;SDS011;57319;56.274;43.980;2023-12-20T07:48:36;14.07;;;5.95;;
69981;SDS011;57319;56.274;43.980;2023-12-20T07:51:03;13.40;;;6.13;;
69981;SDS011;57319;56.274;43.980;2023-12-20T07:53:33;11.80;;;6.32;;
69981;SDS011;57319;56.274;43.980;2023-12-20T07:56:00;13.70;;;6.53;;
69981;SDS011;57319;56.274;43.980;2023-12-20T07:58:26;18.33;;;6.97;;
69981;SDS011;57319;56.274;43.980;2023-12-20T08:00:51;23.38;;;7.70;;
69981;SDS011;57319;56.274;43.980;2023-12-20T08:03:17;13.13;;;5.95;;
69981;SDS011;57319;56.274;43.980;2023-12-20T08:05:43;15.52;;;7.10;;
69981;SDS011;57319;56.274;43.980;2023-12-20T08:08:08;11.20;;;7.38;;
69981;SDS011;57319;56.274;43.980;2023-12-20T08:10:34;24.42;;;8.23;;
69981;SDS011;57319;56.274;43.980;2023-12-20T08:13:00;11.88;;;7.78;;
69981;SDS011;57319;56.274;43.980;2023-12-20T08:15:26;21.10;;;8.80;;
69981;SDS011;57319;56.274;43.980;2023-12-20T08:17:51;15.05;;;8.35;;
69981;SDS011;57319;56.274;43.980;2023-12-20T08:20:17;21.50;;;10.60;;
69981;SDS011;57319;56.274;43.980;2023-12-20T08:22:43;18.00;;;7.22;;
69981;SDS011;57319;56.274;43.980;2023-12-20T08:25:08;15.88;;;6.53;;
69981;SDS011;57319;56.274;43.980;2023-12-20T08:27:39;12.70;;;6.13;;
69981;SDS011;57319;56.274;43.980;2023-12-20T08:30:05;3.80;;;3.50;;
69981;SDS011;57319;56.274;43.980;2023-12-20T08:32:31;1.70;;;1.65;;
69981;SDS011;57319;56.274;43.980;2023-12-20T08:34:57;13.13;;;3.45;;
69981;SDS011;57319;56.274;43.980;2023-12-20T08:37:23;5.70;;;3.83;;
69981;SDS011;57319;56.274;43.980;2023-12-20T08:39:49;4.90;;;3.50;;
69981;SDS011;57319;56.274;43.980;2023-12-20T08:42:15;9.85;;;5.68;;
69981;SDS011;57319;56.274;43.980;2023-12-20T08:44:40;20.13;;;5.85;;
69981;SDS011;57319;56.274;43.980;2023-12-20T08:47:06;20.63;;;8.82;;
69981;SDS011;57319;56.274;43.980;2023-12-20T08:49:32;14.20;;;7.47;;
69981;SDS011;57319;56.274;43.980;2023-12-20T08:51:58;16.15;;;8.88;;
69981;SDS011;57319;56.274;43.980;2023-12-20T08:54:23;24.95;;;7.88;;
69981;SDS011;57319;56.274;43.980;2023-12-20T08:56:49;15.35;;;4.85;;
69981;SDS011;57319;56.274;43.980;2023-12-20T08:59:15;15.93;;;7.53;;
69981;SDS011;57319;56.274;43.980;2023-12-20T09:01:41;12.10;;;7.18;;
69981;SDS011;57319;56.274;43.980;2023-12-20T09:04:06;18.50;;;8.38;;
69981;SDS011;57319;56.274;43.980;2023-12-20T09:06:32;30.60;;;10.85;;
69981;SDS011;57319;56.274;43.980;2023-12-20T09:08:58;14.48;;;8.00;;
69981;SDS011;57319;56.274;43.980;2023-12-20T09:11:23;20.02;;;8.95;;
69981;SDS011;57319;56.274;43.980;2023-12-20T09:13:49;38.80;;;13.35;;
69981;SDS011;57319;56.274;43.980;2023-12-20T09:16:14;24.48;;;9.82;;
69981;SDS011;57319;56.274;43.980;2023-12-20T09:18:41;32.40;;;13.00;;
69981;SDS011;57319;56.274;43.980;2023-12-20T09:21:07;41.45;;;15.95;;
69981;SDS011;57319;56.274;43.980;2023-12-20T09:23:33;40.42;;;15.35;;
69981;SDS011;57319;56.274;43.980;2023-12-20T09:25:58;22.77;;;9.43;;
69981;SDS011;57319;56.274;43.980;2023-12-20T09:28:24;22.63;;;9.10;;
69981;SDS011;57319;56.274;43.980;2023-12-20T09:30:49;27.70;;;11.55;;
69981;SDS011;57319;56.274;43.980;2023-12-20T09:33:15;14.73;;;6.13;;
69981;SDS011;57319;56.274;43.980;2023-12-20T09:35:41;21.27;;;7.70;;
69981;SDS011;57319;56.274;43.980;2023-12-20T09:38:07;24.70;;;8.82;;
69981;SDS011;57319;56.274;43.980;2023-12-20T09:40:33;24.92;;;9.50;;
69981;SDS011;57319;56.274;43.980;2023-12-20T09:43:04;7.57;;;4.97;;
69981;SDS011;57319;56.274;43.980;2023-12-20T09:45:36;15.18;;;7.45;;
69981;SDS011;57319;56.274;43.980;2023-12-20T09:48:02;16.65;;;7.00;;
69981;SDS011;57319;56.274;43.980;2023-12-20T09:50:30;30.35;;;8.02;;
69981;SDS011;57319;56.274;43.980;2023-12-20T09:52:57;7.25;;;3.83;;
69981;SDS011;57319;56.274;43.980;2023-12-20T09:55:25;10.45;;;5.28;;
69981;SDS011;57319;56.274;43.980;2023-12-20T09:57:50;7.82;;;4.32;;
69981;SDS011;57319;56.274;43.980;2023-12-20T16:29:37;25.88;;;12.05;;
69981;SDS011;57319;56.274;43.980;2023-12-20T16:32:03;19.70;;;10.93;;
69981;SDS011;57319;56.274;43.980;2023-12-20T17:01:14;16.25;;;10.02;;
69981;SDS011;57319;56.274;43.980;2023-12-20T17:03:40;18.33;;;10.07;;
69981;SDS011;57319;56.274;43.980;2023-12-20T17:06:06;11.82;;;8.77;;
69981;SDS011;57319;56.274;43.980;2023-12-20T17:08:33;16.98;;;8.55;;
69981;SDS011;57319;56.274;43.980;2023-12-20T17:10:59;13.23;;;9.10;;
69981;SDS011;57319;56.274;43.980;2023-12-20T17:13:26;9.80;;;5.97;;
69981;SDS011;57319;56.274;43.980;2023-12-20T17:15:52;22.85;;;9.27;;
69981;SDS011;57319;56.274;43.980;2023-12-20T17:18:18;15.63;;;8.80;;
69981;SDS011;57319;56.274;43.980;2023-12-20T17:20:44;13.75;;;9.50;;
69981;SDS011;57319;56.274;43.980;2023-12-20T17:23:10;11.85;;;8.48;;
69981;SDS011;57319;56.274;43.980;2023-12-20T17:25:36;14.20;;;7.63;;
69981;SDS011;57319;56.274;43.980;2023-12-20T17:28:05;16.17;;;7.93;;
69981;SDS011;57319;56.274;43.980;2023-12-20T17:30:31;14.35;;;8.80;;
69981;SDS011;57319;56.274;43.980;2023-12-20T17:32:57;11.40;;;7.45;;
69981;SDS011;57319;56.274;43.980;2023-12-20T17:35:22;9.85;;;5.60;;
69981;SDS011;57319;56.274;43.980;2023-12-20T17:37:48;8.23;;;7.18;;
69981;SDS011;57319;56.274;43.980;2023-12-20T17:40:19;10.38;;;6.82;;
69981;SDS011;57319;56.274;43.980;2023-12-20T17:42:52;12.85;;;6.00;;
69981;SDS011;57319;56.274;43.980;2023-12-20T17:45:19;13.80;;;8.38;;
69981;SDS011;57319;56.274;43.980;2023-12-20T17:47:45;14.95;;;6.82;;
69981;SDS011;57319;56.274;43.980;2023-12-20T17:50:10;10.60;;;7.63;;
69981;SDS011;57319;56.274;43.980;2023-12-20T17:52:38;12.40;;;7.47;;
69981;SDS011;57319;56.274;43.980;2023-12-20T17:55:04;10.32;;;7.80;;
69981;SDS011;57319;56.274;43.980;2023-12-20T17:57:32;10.27;;;8.00;;
69981;SDS011;57319;56.274;43.980;2023-12-20T18:00:11;12.27;;;8.15;;
69981;SDS011;57319;56.274;43.980;2023-12-20T18:02:41;10.82;;;8.50;;
69981;SDS011;57319;56.274;43.980;2023-12-20T18:05:10;14.68;;;9.02;;
69981;SDS011;57319;56.274;43.980;2023-12-20T18:08:31;13.07;;;7.93;;
69981;SDS011;57319;56.274;43.980;2023-12-20T18:10:57;10.55;;;8.30;;
69981;SDS011;57319;56.274;43.980;2023-12-20T18:13:22;15.48;;;8.40;;
69981;SDS011;57319;56.274;43.980;2023-12-20T18:15:50;17.98;;;11.52;;
69981;SDS011;57319;56.274;43.980;2023-12-20T18:18:21;14.77;;;9.27;;
69981;SDS011;57319;56.274;43.980;2023-12-20T18:20:49;16.90;;;10.63;;
69981;SDS011;57319;56.274;43.980;2023-12-20T18:23:14;15.05;;;9.15;;
69981;SDS011;57319;56.274;43.980;2023-12-20T18:25:40;11.85;;;8.50;;
69981;SDS011;57319;56.274;43.980;2023-12-20T18:28:06;18.95;;;9.20;;
69981;SDS011;57319;56.274;43.980;2023-12-20T18:30:34;16.00;;;9.82;;
69981;SDS011;57319;56.274;43.980;2023-12-20T18:32:59;21.10;;;8.85;;
69981;SDS011;57319;56.274;43.980;2023-12-20T18:35:25;13.73;;;8.07;;
69981;SDS011;57319;56.274;43.980;2023-12-20T18:37:51;11.65;;;8.15;;
69981;SDS011;57319;56.274;43.980;2023-12-20T18:40:17;19.67;;;10.13;;
69981;SDS011;57319;56.274;43.980;2023-12-20T18:42:44;23.27;;;11.23;;
69981;SDS011;57319;56.274;43.980;2023-12-20T18:45:10;24.50;;;13.43;;
69981;SDS011;57319;56.274;43.980;2023-12-20T18:47:36;21.73;;;12.13;;
69981;SDS011;57319;56.274;43.980;2023-12-20T18:50:02;24.88;;;11.40;;
69981;SDS011;57319;56.274;43.980;2023-12-20T18:52:30;16.90;;;10.60;;
69981;SDS011;57319;56.274;43.980;2023-12-20T18:54:56;25.85;;;12.00;;
69981;SDS011;57319;56.274;43.980;2023-12-20T18:57:21;21.70;;;11.90;;
69981;SDS011;57319;56.274;43.980;2023-12-20T18:59:57;21.00;;;12.38;;
69981;SDS011;57319;56.274;43.980;2023-12-20T19:02:23;23.95;;;11.98;;
69981;SDS011;57319;56.274;43.980;2023-12-20T19:04:49;26.50;;;12.40;;
69981;SDS011;57319;56.274;43.980;2023-12-20T19:07:14;32.50;;;15.85;;
69981;SDS011;57319;56.274;43.980;2023-12-20T19:09:40;24.40;;;12.25;;
69981;SDS011;57319;56.274;43.980;2023-12-20T19:12:11;33.95;;;13.48;;
69981;SDS011;57319;56.274;43.980;2023-12-20T19:14:39;21.60;;;12.50;;
69981;SDS011;57319;56.274;43.980;2023-12-20T19:17:05;26.77;;;13.02;;
69981;SDS011;57319;56.274;43.980;2023-12-20T19:19:31;27.38;;;14.65;;
69981;SDS011;57319;56.274;43.980;2023-12-20T19:21:56;20.90;;;10.60;;
69981;SDS011;57319;56.274;43.980;2023-12-20T19:24:22;21.75;;;12.88;;
69981;SDS011;57319;56.274;43.980;2023-12-20T19:26:47;23.20;;;11.90;;
69981;SDS011;57319;56.274;43.980;2023-12-20T19:29:16;19.85;;;11.55;;
69981;SDS011;57319;56.274;43.980;2023-12-20T19:31:44;25.70;;;11.48;;
69981;SDS011;57319;56.274;43.980;2023-12-20T19:34:12;20.27;;;11.43;;
69981;SDS011;57319;56.274;43.980;2023-12-20T19:36:38;18.88;;;10.95;;
69981;SDS011;57319;56.274;43.980;2023-12-20T19:39:03;21.73;;;13.05;;
69981;SDS011;57319;56.274;43.980;2023-12-20T19:41:29;15.80;;;9.52;;
69981;SDS011;57319;56.274;43.980;2023-12-20T19:43:55;15.38;;;10.73;;
69981;SDS011;57319;56.274;43.980;2023-12-20T19:46:23;20.02;;;10.10;;
69981;SDS011;57319;56.274;43.980;2023-12-20T19:48:49;17.10;;;8.48;;
69981;SDS011;57319;56.274;43.980;2023-12-20T19:51:15;19.05;;;10.32;;
69981;SDS011;57319;56.274;43.980;2023-12-20T19:53:42;22.35;;;10.93;;
69981;SDS011;57319;56.274;43.980;2023-12-20T19:56:07;18.63;;;10.43;;
69981;SDS011;57319;56.274;43.980;2023-12-20T19:58:33;16.98;;;10.00;;
69981;SDS011;57319;56.274;43.980;2023-12-20T20:00:59;21.17;;;10.80;;
69981;SDS011;57319;56.274;43.980;2023-12-20T20:03:24;19.25;;;10.82;;
69981;SDS011;57319;56.274;43.980;2023-12-20T20:05:50;23.45;;;9.68;;
69981;SDS011;57319;56.274;43.980;2023-12-20T20:08:16;19.75;;;9.98;;
69981;SDS011;57319;56.274;43.980;2023-12-20T20:10:41;15.73;;;10.75;;
69981;SDS011;57319;56.274;43.980;2023-12-20T20:13:07;16.15;;;10.82;;
69981;SDS011;57319;56.274;43.980;2023-12-20T20:15:33;20.73;;;11.18;;
69981;SDS011;57319;56.274;43.980;2023-12-20T20:17:58;16.60;;;10.70;;
69981;SDS011;57319;56.274;43.980;2023-12-20T20:20:24;22.83;;;11.18;;
69981;SDS011;57319;56.274;43.980;2023-12-20T20:22:50;15.73;;;10.10;;
69981;SDS011;57319;56.274;43.980;2023-12-20T20:25:15;15.95;;;10.45;;
69981;SDS011;57319;56.274;43.980;2023-12-20T20:27:41;9.77;;;7.55;;
69981;SDS011;57319;56.274;43.980;2023-12-20T20:30:07;15.23;;;10.07;;
69981;SDS011;57319;56.274;43.980;2023-12-20T20:32:33;12.18;;;8.18;;
69981;SDS011;57319;56.274;43.980;2023-12-20T20:34:59;9.75;;;7.53;;
69981;SDS011;57319;56.274;43.980;2023-12-20T20:37:24;10.48;;;7.70;;
69981;SDS011;57319;56.274;43.980;2023-12-20T20:39:50;10.50;;;8.00;;
69981;SDS011;57319;56.274;43.980;2023-12-20T20:42:15;11.60;;;7.03;;
69981;SDS011;57319;56.274;43.980;2023-12-20T20:44:41;10.52;;;7.95;;
69981;SDS011;57319;56.274;43.980;2023-12-20T20:47:07;8.15;;;7.07;;
69981;SDS011;57319;56.274;43.980;2023-12-20T20:49:32;11.57;;;8.35;;
69981;SDS011;57319;56.274;43.980;2023-12-20T20:51:59;12.15;;;8.13;;
69981;SDS011;57319;56.274;43.980;2023-12-20T20:54:24;7.93;;;6.95;;
69981;SDS011;57319;56.274;43.980;2023-12-20T20:56:50;8.32;;;6.82;;
69981;SDS011;57319;56.274;43.980;2023-12-20T20:59:17;7.53;;;6.80;;
69981;SDS011;57319;56.274;43.980;2023-12-20T21:01:43;7.95;;;6.55;;
69981;SDS011;57319;56.274;43.980;2023-12-20T21:04:09;7.63;;;6.43;;
69981;SDS011;57319;56.274;43.980;2023-12-20T21:06:35;9.48;;;7.20;;
69981;SDS011;57319;56.274;43.980;2023-12-20T21:09:01;12.02;;;7.40;;
69981;SDS011;57319;56.274;43.980;2023-12-20T21:11:26;11.88;;;8.20;;
69981;SDS011;57319;56.274;43.980;2023-12-20T21:13:52;10.43;;;7.47;;
69981;SDS011;57319;56.274;43.980;2023-12-20T21:16:18;10.48;;;7.40;;
69981;SDS011;57319;56.274;43.980;2023-12-20T21:18:43;10.32;;;8.15;;
69981;SDS011;57319;56.274;43.980;2023-12-20T21:21:10;8.05;;;5.10;;
69981;SDS011;57319;56.274;43.980;2023-12-20T21:23:36;15.15;;;8.45;;
69981;SDS011;57319;56.274;43.980;2023-12-20T21:26:03;8.82;;;6.97;;
69981;SDS011;57319;56.274;43.980;2023-12-20T21:28:31;10.65;;;7.50;;
69981;SDS011;57319;56.274;43.980;2023-12-20T21:30:58;14.00;;;8.18;;
69981;SDS011;57319;56.274;43.980;2023-12-20T21:33:24;9.68;;;7.38;;
69981;SDS011;57319;56.274;43.980;2023-12-20T21:35:50;9.52;;;7.90;;
69981;SDS011;57319;56.274;43.980;2023-12-20T21:38:15;11.40;;;7.53;;
69981;SDS011;57319;56.274;43.980;2023-12-20T21:40:41;12.98;;;8.45;;
69981;SDS011;57319;56.274;43.980;2023-12-20T21:43:07;16.70;;;7.25;;
69981;SDS011;57319;56.274;43.980;2023-12-20T21:45:32;12.35;;;7.97;;
69981;SDS011;57319;56.274;43.980;2023-12-20T21:47:58;14.20;;;8.23;;
69981;SDS011;57319;56.274;43.980;2023-12-20T21:50:24;8.70;;;6.43;;
69981;SDS011;57319;56.274;43.980;2023-12-20T21:52:49;10.27;;;7.35;;
69981;SDS011;57319;56.274;43.980;2023-12-20T21:55:15;11.38;;;8.02;;
69981;SDS011;57319;56.274;43.980;2023-12-20T21:57:41;10.38;;;8.10;;
69981;SDS011;57319;56.274;43.980;2023-12-20T22:00:07;9.40;;;6.72;;
69981;SDS011;57319;56.274;43.980;2023-12-20T22:02:33;10.98;;;7.30;;
69981;SDS011;57319;56.274;43.980;2023-12-20T22:05:00;11.63;;;7.65;;
69981;SDS011;57319;56.274;43.980;2023-12-20T22:07:26;10.35;;;7.20;;
69981;SDS011;57319;56.274;43.980;2023-12-20T22:09:51;9.50;;;6.60;;
69981;SDS011;57319;56.274;43.980;2023-12-20T22:12:17;8.60;;;5.68;;
69981;SDS011;57319;56.274;43.980;2023-12-20T22:14:43;6.30;;;5.70;;
69981;SDS011;57319;56.274;43.980;2023-12-20T22:17:08;6.53;;;5.88;;
69981;SDS011;57319;56.274;43.980;2023-12-20T22:19:35;6.40;;;5.80;;
69981;SDS011;57319;56.274;43.980;2023-12-20T22:22:01;5.82;;;5.32;;
69981;SDS011;57319;56.274;43.980;2023-12-20T22:24:27;5.75;;;5.10;;
69981;SDS011;57319;56.274;43.980;2023-12-20T22:26:52;7.38;;;4.85;;
69981;SDS011;57319;56.274;43.980;2023-12-20T22:29:20;5.93;;;4.28;;
69981;SDS011;57319;56.274;43.980;2023-12-20T22:31:48;5.32;;;4.85;;
69981;SDS011;57319;56.274;43.980;2023-12-20T22:34:13;6.28;;;5.35;;
69981;SDS011;57319;56.274;43.980;2023-12-20T22:36:39;5.75;;;5.25;;
69981;SDS011;57319;56.274;43.980;2023-12-20T22:39:05;4.43;;;4.03;;
69981;SDS011;57319;56.274;43.980;2023-12-20T22:41:31;5.07;;;4.68;;
69981;SDS011;57319;56.274;43.980;2023-12-20T22:43:57;4.38;;;4.07;;
69981;SDS011;57319;56.274;43.980;2023-12-20T22:46:22;5.07;;;4.68;;
69981;SDS011;57319;56.274;43.980;2023-12-20T22:48:48;4.32;;;3.92;;
69981;SDS011;57319;56.274;43.980;2023-12-20T22:51:14;4.65;;;4.32;;
69981;SDS011;57319;56.274;43.980;2023-12-20T22:53:40;4.50;;;4.20;;
69981;SDS011;57319;56.274;43.980;2023-12-20T22:56:05;4.55;;;4.13;;
69981;SDS011;57319;56.274;43.980;2023-12-20T22:58:31;4.85;;;4.45;;
69981;SDS011;57319;56.274;43.980;2023-12-20T23:00:57;4.72;;;4.32;;
69981;SDS011;57319;56.274;43.980;2023-12-20T23:03:22;5.03;;;4.68;;
69981;SDS011;57319;56.274;43.980;2023-12-20T23:05:50;5.90;;;4.25;;
69981;SDS011;57319;56.274;43.980;2023-12-20T23:08:16;3.63;;;3.42;;
69981;SDS011;57319;56.274;43.980;2023-12-20T23:10:42;4.75;;;4.18;;
69981;SDS011;57319;56.274;43.980;2023-12-20T23:13:07;5.25;;;4.20;;
69981;SDS011;57319;56.274;43.980;2023-12-20T23:15:33;3.25;;;3.05;;
69981;SDS011;57319;56.274;43.980;2023-12-20T23:17:58;5.47;;;4.53;;
69981;SDS011;57319;56.274;43.980;2023-12-20T23:20:25;5.75;;;4.35;;
69981;SDS011;57319;56.274;43.980;2023-12-20T23:22:51;5.55;;;4.10;;
69981;SDS011;57319;56.274;43.980;2023-12-20T23:25:16;4.55;;;4.25;;
69981;SDS011;57319;56.274;43.980;2023-12-20T23:27:42;4.15;;;3.85;;
69981;SDS011;57319;56.274;43.980;2023-12-20T23:30:11;5.00;;;4.70;;
69981;SDS011;57319;56.274;43.980;2023-12-20T23:32:37;4.10;;;3.72;;
69981;SDS011;57319;56.274;43.980;2023-12-20T23:35:02;4.75;;;4.45;;
69981;SDS011;57319;56.274;43.980;2023-12-20T23:37:28;4.28;;;3.97;;
69981;SDS011;57319;56.274;43.980;2023-12-20T23:39:54;4.20;;;4.00;;
69981;SDS011;57319;56.274;43.980;2023-12-20T23:42:20;4.22;;;3.92;;
69981;SDS011;57319;56.274;43.980;2023-12-20T23:44:46;5.68;;;4.03;;
69981;SDS011;57319;56.274;43.980;2023-12-20T23:47:11;4.60;;;4.15;;
69981;SDS011;57319;56.274;43.980;2023-12-20T23:49:37;4.60;;;3.78;;
69981;SDS011;57319;56.274;43.980;2023-12-20T23:52:03;3.90;;;3.80;;
69981;SDS011;57319;56.274;43.980;2023-12-20T23:54:29;3.92;;;3.63;;
69981;SDS011;57319;56.274;43.980;2023-12-20T23:56:54;8.93;;;3.55;;
69981;SDS011;57319;56.274;43.980;2023-12-20T23:59:20;4.70;;;4.35;;
